sensor_id;sensor_type;location;lat;lon;timestamp;P1;durP1;ratioP1;P2;durP2;ratioP2
15331;SDS011;7766;51.534;6.722;2023-06-01T00:00:14;7.70;;;4.60;;
15331;SDS011;7766;51.534;6.722;2023-06-01T00:01:15;9.97;;;4.47;;
15331;SDS011;7766;51.534;6.722;2023-06-01T00:02:17;9.33;;;4.77;;
15331;SDS011;7766;51.534;6.722;2023-06-01T00:03:17;10.57;;;5.80;;
15331;SDS011;7766;51.534;6.722;2023-06-01T00:04:18;6.70;;;4.53;;
15331;SDS011;7766;51.534;6.722;2023-06-01T00:05:20;8.43;;;5.13;;
15331;SDS011;7766;51.534;6.722;2023-06-01T00:06:21;6.93;;;5.03;;
15331;SDS011;7766;51.534;6.722;2023-06-01T00:07:22;7.87;;;5.20;;
15331;SDS011;7766;51.534;6.722;2023-06-01T00:08:23;8.23;;;5.57;;
15331;SDS011;7766;51.534;6.722;2023-06-01T00:09:24;9.40;;;5.60;;
15331;SDS011;7766;51.534;6.722;2023-06-01T00:10:25;12.00;;;6.10;;
15331;SDS011;7766;51.534;6.722;2023-06-01T00:11:27;10.10;;;5.77;;
15331;SDS011;7766;51.534;6.722;2023-06-01T00:12:28;6.73;;;5.23;;
15331;SDS011;7766;51.534;6.722;2023-06-01T00:13:29;7.53;;;5.20;;
15331;SDS011;7766;51.534;6.722;2023-06-01T00:14:30;10.03;;;5.60;;
15331;SDS011;7766;51.534;6.722;2023-06-01T00:15:31;8.13;;;5.63;;
15331;SDS011;7766;51.534;6.722;2023-06-01T00:16:32;8.60;;;5.53;;
15331;SDS011;7766;51.534;6.722;2023-06-01T00:17:33;9.40;;;6.00;;
15331;SDS011;7766;51.534;6.722;2023-06-01T00:18:34;7.53;;;5.07;;
15331;SDS011;7766;51.534;6.722;2023-06-01T00:19:35;9.07;;;5.13;;
15331;SDS011;7766;51.534;6.722;2023-06-01T00:20:38;8.20;;;5.67;;
15331;SDS011;7766;51.534;6.722;2023-06-01T00:21:39;6.57;;;5.23;;
15331;SDS011;7766;51.534;6.722;2023-06-01T00:22:41;10.30;;;6.27;;
15331;SDS011;7766;51.534;6.722;2023-06-01T00:23:42;9.13;;;5.87;;
15331;SDS011;7766;51.534;6.722;2023-06-01T00:24:44;9.87;;;6.43;;
15331;SDS011;7766;51.534;6.722;2023-06-01T00:25:45;7.60;;;5.87;;
15331;SDS011;7766;51.534;6.722;2023-06-01T00:26:47;7.93;;;5.93;;
15331;SDS011;7766;51.534;6.722;2023-06-01T00:27:48;12.67;;;6.57;;
15331;SDS011;7766;51.534;6.722;2023-06-01T00:28:49;9.47;;;6.07;;
15331;SDS011;7766;51.534;6.722;2023-06-01T00:29:50;9.73;;;5.90;;
15331;SDS011;7766;51.534;6.722;2023-06-01T00:30:51;9.93;;;5.90;;
15331;SDS011;7766;51.534;6.722;2023-06-01T00:31:53;12.47;;;5.47;;
15331;SDS011;7766;51.534;6.722;2023-06-01T00:32:54;11.33;;;5.67;;
15331;SDS011;7766;51.534;6.722;2023-06-01T00:33:55;9.73;;;6.63;;
15331;SDS011;7766;51.534;6.722;2023-06-01T00:34:56;9.60;;;6.53;;
15331;SDS011;7766;51.534;6.722;2023-06-01T00:35:57;10.80;;;6.17;;
15331;SDS011;7766;51.534;6.722;2023-06-01T00:36:58;7.37;;;5.90;;
15331;SDS011;7766;51.534;6.722;2023-06-01T00:37:59;9.67;;;6.30;;
15331;SDS011;7766;51.534;6.722;2023-06-01T00:39:00;10.13;;;6.23;;
15331;SDS011;7766;51.534;6.722;2023-06-01T00:40:04;14.20;;;6.93;;
15331;SDS011;7766;51.534;6.722;2023-06-01T00:41:06;10.27;;;6.00;;
15331;SDS011;7766;51.534;6.722;2023-06-01T00:42:07;9.93;;;6.50;;
15331;SDS011;7766;51.534;6.722;2023-06-01T00:43:07;9.80;;;6.80;;
15331;SDS011;7766;51.534;6.722;2023-06-01T00:44:09;8.87;;;6.00;;
15331;SDS011;7766;51.534;6.722;2023-06-01T00:45:10;9.10;;;6.00;;
15331;SDS011;7766;51.534;6.722;2023-06-01T00:46:11;11.13;;;6.63;;
15331;SDS011;7766;51.534;6.722;2023-06-01T00:47:14;8.80;;;6.73;;
15331;SDS011;7766;51.534;6.722;2023-06-01T00:48:15;10.17;;;6.73;;
15331;SDS011;7766;51.534;6.722;2023-06-01T00:49:17;10.87;;;7.03;;
15331;SDS011;7766;51.534;6.722;2023-06-01T00:50:18;11.20;;;6.57;;
15331;SDS011;7766;51.534;6.722;2023-06-01T00:51:21;11.67;;;6.53;;
15331;SDS011;7766;51.534;6.722;2023-06-01T00:52:22;8.97;;;6.97;;
15331;SDS011;7766;51.534;6.722;2023-06-01T00:53:24;11.33;;;7.37;;
15331;SDS011;7766;51.534;6.722;2023-06-01T00:54:25;10.90;;;6.90;;
15331;SDS011;7766;51.534;6.722;2023-06-01T00:55:27;9.93;;;6.37;;
15331;SDS011;7766;51.534;6.722;2023-06-01T00:56:28;10.97;;;6.67;;
15331;SDS011;7766;51.534;6.722;2023-06-01T00:57:31;9.97;;;6.80;;
15331;SDS011;7766;51.534;6.722;2023-06-01T00:58:33;14.73;;;7.40;;
15331;SDS011;7766;51.534;6.722;2023-06-01T00:59:34;13.13;;;6.37;;
15331;SDS011;7766;51.534;6.722;2023-06-01T01:00:35;12.60;;;6.83;;
15331;SDS011;7766;51.534;6.722;2023-06-01T01:01:37;11.33;;;6.90;;
15331;SDS011;7766;51.534;6.722;2023-06-01T01:02:42;9.00;;;7.07;;
15331;SDS011;7766;51.534;6.722;2023-06-01T01:03:48;11.30;;;7.27;;
15331;SDS011;7766;51.534;6.722;2023-06-01T01:04:57;11.67;;;6.73;;
15331;SDS011;7766;51.534;6.722;2023-06-01T01:06:04;10.63;;;6.53;;
15331;SDS011;7766;51.534;6.722;2023-06-01T01:09:50;7.83;;;6.53;;
15331;SDS011;7766;51.534;6.722;2023-06-01T01:11:15;10.67;;;6.80;;
15331;SDS011;7766;51.534;6.722;2023-06-01T01:13:50;11.83;;;7.43;;
15331;SDS011;7766;51.534;6.722;2023-06-01T01:15:01;9.13;;;6.90;;
15331;SDS011;7766;51.534;6.722;2023-06-01T01:16:24;12.20;;;7.50;;
15331;SDS011;7766;51.534;6.722;2023-06-01T01:17:42;13.40;;;6.77;;
15331;SDS011;7766;51.534;6.722;2023-06-01T01:18:48;12.07;;;7.90;;
15331;SDS011;7766;51.534;6.722;2023-06-01T01:20:14;9.67;;;7.23;;
15331;SDS011;7766;51.534;6.722;2023-06-01T01:21:18;10.30;;;6.70;;
15331;SDS011;7766;51.534;6.722;2023-06-01T01:22:25;9.77;;;7.10;;
15331;SDS011;7766;51.534;6.722;2023-06-01T01:24:55;12.50;;;7.37;;
15331;SDS011;7766;51.534;6.722;2023-06-01T01:29:26;12.23;;;7.67;;
15331;SDS011;7766;51.534;6.722;2023-06-01T01:30:32;11.53;;;7.20;;
15331;SDS011;7766;51.534;6.722;2023-06-01T01:31:38;18.40;;;8.20;;
15331;SDS011;7766;51.534;6.722;2023-06-01T01:32:40;12.23;;;7.47;;
15331;SDS011;7766;51.534;6.722;2023-06-01T01:33:42;11.67;;;7.50;;
15331;SDS011;7766;51.534;6.722;2023-06-01T01:34:46;14.13;;;7.63;;
15331;SDS011;7766;51.534;6.722;2023-06-01T01:35:49;15.77;;;8.63;;
15331;SDS011;7766;51.534;6.722;2023-06-01T01:36:51;14.70;;;7.87;;
15331;SDS011;7766;51.534;6.722;2023-06-01T01:37:53;11.70;;;7.83;;
15331;SDS011;7766;51.534;6.722;2023-06-01T01:38:54;16.03;;;8.87;;
15331;SDS011;7766;51.534;6.722;2023-06-01T01:39:55;15.93;;;8.30;;
15331;SDS011;7766;51.534;6.722;2023-06-01T01:40:56;10.83;;;7.33;;
15331;SDS011;7766;51.534;6.722;2023-06-01T01:41:57;12.27;;;8.20;;
15331;SDS011;7766;51.534;6.722;2023-06-01T01:42:58;13.93;;;8.20;;
15331;SDS011;7766;51.534;6.722;2023-06-01T01:44:00;12.77;;;8.13;;
15331;SDS011;7766;51.534;6.722;2023-06-01T01:45:03;12.50;;;8.13;;
15331;SDS011;7766;51.534;6.722;2023-06-01T01:47:34;16.00;;;8.50;;
15331;SDS011;7766;51.534;6.722;2023-06-01T01:48:46;16.17;;;8.80;;
15331;SDS011;7766;51.534;6.722;2023-06-01T01:50:02;16.40;;;8.30;;
15331;SDS011;7766;51.534;6.722;2023-06-01T01:51:07;14.50;;;8.97;;
15331;SDS011;7766;51.534;6.722;2023-06-01T01:52:26;12.87;;;7.63;;
15331;SDS011;7766;51.534;6.722;2023-06-01T01:53:35;13.20;;;8.07;;
15331;SDS011;7766;51.534;6.722;2023-06-01T01:54:41;12.60;;;8.10;;
15331;SDS011;7766;51.534;6.722;2023-06-01T01:55:45;15.43;;;8.97;;
15331;SDS011;7766;51.534;6.722;2023-06-01T01:56:48;13.33;;;8.20;;
15331;SDS011;7766;51.534;6.722;2023-06-01T01:57:51;14.10;;;8.47;;
15331;SDS011;7766;51.534;6.722;2023-06-01T01:58:53;13.23;;;8.63;;
15331;SDS011;7766;51.534;6.722;2023-06-01T01:59:55;10.43;;;8.07;;
15331;SDS011;7766;51.534;6.722;2023-06-01T02:00:57;15.00;;;8.90;;
15331;SDS011;7766;51.534;6.722;2023-06-01T02:01:59;12.50;;;8.20;;
15331;SDS011;7766;51.534;6.722;2023-06-01T02:03:00;12.80;;;8.50;;
15331;SDS011;7766;51.534;6.722;2023-06-01T02:04:02;14.80;;;8.57;;
15331;SDS011;7766;51.534;6.722;2023-06-01T02:05:07;16.63;;;8.97;;
15331;SDS011;7766;51.534;6.722;2023-06-01T02:06:07;15.53;;;9.37;;
15331;SDS011;7766;51.534;6.722;2023-06-01T02:07:09;14.70;;;8.77;;
15331;SDS011;7766;51.534;6.722;2023-06-01T02:08:10;14.60;;;9.17;;
15331;SDS011;7766;51.534;6.722;2023-06-01T02:09:11;14.67;;;9.43;;
15331;SDS011;7766;51.534;6.722;2023-06-01T02:10:12;12.53;;;9.27;;
15331;SDS011;7766;51.534;6.722;2023-06-01T02:11:13;13.93;;;9.20;;
15331;SDS011;7766;51.534;6.722;2023-06-01T02:12:14;13.00;;;9.10;;
15331;SDS011;7766;51.534;6.722;2023-06-01T02:13:15;12.97;;;9.57;;
15331;SDS011;7766;51.534;6.722;2023-06-01T02:14:16;15.67;;;9.60;;
15331;SDS011;7766;51.534;6.722;2023-06-01T02:15:17;20.17;;;10.47;;
15331;SDS011;7766;51.534;6.722;2023-06-01T02:16:18;15.53;;;9.50;;
15331;SDS011;7766;51.534;6.722;2023-06-01T02:17:21;17.87;;;9.97;;
15331;SDS011;7766;51.534;6.722;2023-06-01T02:18:25;15.37;;;9.43;;
15331;SDS011;7766;51.534;6.722;2023-06-01T02:19:26;16.53;;;10.10;;
15331;SDS011;7766;51.534;6.722;2023-06-01T02:20:27;14.13;;;9.43;;
15331;SDS011;7766;51.534;6.722;2023-06-01T02:21:28;18.03;;;9.97;;
15331;SDS011;7766;51.534;6.722;2023-06-01T02:22:31;13.57;;;9.97;;
15331;SDS011;7766;51.534;6.722;2023-06-01T02:23:32;13.40;;;9.23;;
15331;SDS011;7766;51.534;6.722;2023-06-01T02:24:33;15.33;;;10.00;;
15331;SDS011;7766;51.534;6.722;2023-06-01T02:25:34;15.23;;;10.70;;
15331;SDS011;7766;51.534;6.722;2023-06-01T02:26:35;14.17;;;9.90;;
15331;SDS011;7766;51.534;6.722;2023-06-01T02:27:36;15.97;;;11.40;;
15331;SDS011;7766;51.534;6.722;2023-06-01T02:28:37;18.97;;;10.13;;
15331;SDS011;7766;51.534;6.722;2023-06-01T02:29:39;17.13;;;10.90;;
15331;SDS011;7766;51.534;6.722;2023-06-01T02:30:40;15.60;;;10.93;;
15331;SDS011;7766;51.534;6.722;2023-06-01T02:31:40;18.60;;;11.90;;
15331;SDS011;7766;51.534;6.722;2023-06-01T02:32:41;15.30;;;11.50;;
15331;SDS011;7766;51.534;6.722;2023-06-01T02:33:45;17.57;;;11.73;;
15331;SDS011;7766;51.534;6.722;2023-06-01T02:34:46;16.90;;;11.40;;
15331;SDS011;7766;51.534;6.722;2023-06-01T02:35:47;21.73;;;11.53;;
15331;SDS011;7766;51.534;6.722;2023-06-01T02:36:48;18.70;;;12.03;;
15331;SDS011;7766;51.534;6.722;2023-06-01T02:37:49;19.23;;;12.00;;
15331;SDS011;7766;51.534;6.722;2023-06-01T02:38:50;18.53;;;11.73;;
15331;SDS011;7766;51.534;6.722;2023-06-01T02:39:51;20.03;;;11.20;;
15331;SDS011;7766;51.534;6.722;2023-06-01T02:40:52;18.30;;;11.87;;
15331;SDS011;7766;51.534;6.722;2023-06-01T02:41:53;18.20;;;11.80;;
15331;SDS011;7766;51.534;6.722;2023-06-01T02:42:54;19.27;;;12.97;;
15331;SDS011;7766;51.534;6.722;2023-06-01T02:43:55;19.90;;;11.10;;
15331;SDS011;7766;51.534;6.722;2023-06-01T02:44:56;20.50;;;12.80;;
15331;SDS011;7766;51.534;6.722;2023-06-01T02:45:57;19.07;;;12.07;;
15331;SDS011;7766;51.534;6.722;2023-06-01T02:46:58;16.90;;;12.07;;
15331;SDS011;7766;51.534;6.722;2023-06-01T02:47:59;19.20;;;11.97;;
15331;SDS011;7766;51.534;6.722;2023-06-01T02:49:00;17.30;;;12.23;;
15331;SDS011;7766;51.534;6.722;2023-06-01T02:50:01;20.97;;;12.40;;
15331;SDS011;7766;51.534;6.722;2023-06-01T02:51:04;20.00;;;11.87;;
15331;SDS011;7766;51.534;6.722;2023-06-01T02:52:06;21.53;;;12.60;;
15331;SDS011;7766;51.534;6.722;2023-06-01T02:53:07;16.30;;;11.57;;
15331;SDS011;7766;51.534;6.722;2023-06-01T02:54:08;20.17;;;12.70;;
15331;SDS011;7766;51.534;6.722;2023-06-01T02:55:09;18.40;;;12.87;;
15331;SDS011;7766;51.534;6.722;2023-06-01T02:56:10;19.20;;;12.73;;
15331;SDS011;7766;51.534;6.722;2023-06-01T02:57:11;20.30;;;13.33;;
15331;SDS011;7766;51.534;6.722;2023-06-01T02:58:11;19.40;;;12.20;;
15331;SDS011;7766;51.534;6.722;2023-06-01T02:59:16;17.77;;;12.97;;
15331;SDS011;7766;51.534;6.722;2023-06-01T03:00:17;18.23;;;13.17;;
15331;SDS011;7766;51.534;6.722;2023-06-01T03:01:18;23.93;;;13.37;;
15331;SDS011;7766;51.534;6.722;2023-06-01T03:02:20;19.57;;;12.10;;
15331;SDS011;7766;51.534;6.722;2023-06-01T03:03:21;19.30;;;12.20;;
15331;SDS011;7766;51.534;6.722;2023-06-01T03:04:22;20.97;;;13.50;;
15331;SDS011;7766;51.534;6.722;2023-06-01T03:05:24;21.20;;;13.33;;
15331;SDS011;7766;51.534;6.722;2023-06-01T03:06:25;17.33;;;13.13;;
15331;SDS011;7766;51.534;6.722;2023-06-01T03:07:31;20.27;;;13.10;;
15331;SDS011;7766;51.534;6.722;2023-06-01T03:08:32;19.80;;;13.50;;
15331;SDS011;7766;51.534;6.722;2023-06-01T03:09:36;20.53;;;13.17;;
15331;SDS011;7766;51.534;6.722;2023-06-01T03:10:37;18.47;;;12.17;;
15331;SDS011;7766;51.534;6.722;2023-06-01T03:11:37;20.37;;;13.13;;
15331;SDS011;7766;51.534;6.722;2023-06-01T03:12:42;21.60;;;13.40;;
15331;SDS011;7766;51.534;6.722;2023-06-01T03:13:43;23.37;;;13.27;;
15331;SDS011;7766;51.534;6.722;2023-06-01T03:14:44;18.57;;;12.63;;
15331;SDS011;7766;51.534;6.722;2023-06-01T03:15:45;19.40;;;12.37;;
15331;SDS011;7766;51.534;6.722;2023-06-01T03:16:46;16.13;;;12.73;;
15331;SDS011;7766;51.534;6.722;2023-06-01T03:17:47;16.43;;;12.83;;
15331;SDS011;7766;51.534;6.722;2023-06-01T03:18:48;19.53;;;11.30;;
15331;SDS011;7766;51.534;6.722;2023-06-01T03:19:49;17.13;;;12.67;;
15331;SDS011;7766;51.534;6.722;2023-06-01T03:20:50;22.07;;;11.90;;
15331;SDS011;7766;51.534;6.722;2023-06-01T03:21:52;15.43;;;11.43;;
15331;SDS011;7766;51.534;6.722;2023-06-01T03:22:53;16.10;;;12.00;;
15331;SDS011;7766;51.534;6.722;2023-06-01T03:23:54;16.90;;;12.30;;
15331;SDS011;7766;51.534;6.722;2023-06-01T03:24:55;19.37;;;11.63;;
15331;SDS011;7766;51.534;6.722;2023-06-01T03:25:57;15.73;;;11.43;;
15331;SDS011;7766;51.534;6.722;2023-06-01T03:26:59;21.37;;;12.47;;
15331;SDS011;7766;51.534;6.722;2023-06-01T03:28:01;21.37;;;12.03;;
15331;SDS011;7766;51.534;6.722;2023-06-01T03:29:02;17.40;;;12.53;;
15331;SDS011;7766;51.534;6.722;2023-06-01T03:30:04;14.83;;;11.03;;
15331;SDS011;7766;51.534;6.722;2023-06-01T03:31:09;17.43;;;11.27;;
15331;SDS011;7766;51.534;6.722;2023-06-01T03:32:11;21.73;;;11.77;;
15331;SDS011;7766;51.534;6.722;2023-06-01T03:33:13;17.07;;;11.50;;
15331;SDS011;7766;51.534;6.722;2023-06-01T03:34:14;15.27;;;10.70;;
15331;SDS011;7766;51.534;6.722;2023-06-01T03:35:16;14.87;;;11.40;;
15331;SDS011;7766;51.534;6.722;2023-06-01T03:36:17;17.67;;;10.43;;
15331;SDS011;7766;51.534;6.722;2023-06-01T03:37:18;19.73;;;12.00;;
15331;SDS011;7766;51.534;6.722;2023-06-01T03:38:19;17.40;;;11.00;;
15331;SDS011;7766;51.534;6.722;2023-06-01T03:39:20;18.47;;;11.33;;
15331;SDS011;7766;51.534;6.722;2023-06-01T03:40:21;15.03;;;11.53;;
15331;SDS011;7766;51.534;6.722;2023-06-01T03:41:22;15.03;;;10.60;;
15331;SDS011;7766;51.534;6.722;2023-06-01T03:42:23;13.57;;;10.67;;
15331;SDS011;7766;51.534;6.722;2023-06-01T03:43:24;16.83;;;10.77;;
15331;SDS011;7766;51.534;6.722;2023-06-01T03:44:25;17.80;;;10.60;;
15331;SDS011;7766;51.534;6.722;2023-06-01T03:45:26;14.60;;;10.23;;
15331;SDS011;7766;51.534;6.722;2023-06-01T03:46:27;16.73;;;10.93;;
15331;SDS011;7766;51.534;6.722;2023-06-01T03:47:28;12.63;;;10.17;;
15331;SDS011;7766;51.534;6.722;2023-06-01T03:48:29;15.83;;;10.87;;
15331;SDS011;7766;51.534;6.722;2023-06-01T03:49:30;14.17;;;10.57;;
15331;SDS011;7766;51.534;6.722;2023-06-01T03:50:31;14.37;;;10.83;;
15331;SDS011;7766;51.534;6.722;2023-06-01T03:51:31;16.47;;;10.77;;
15331;SDS011;7766;51.534;6.722;2023-06-01T03:52:33;16.40;;;10.77;;
15331;SDS011;7766;51.534;6.722;2023-06-01T03:53:34;14.47;;;9.63;;
15331;SDS011;7766;51.534;6.722;2023-06-01T03:54:35;18.33;;;10.23;;
15331;SDS011;7766;51.534;6.722;2023-06-01T03:55:36;16.57;;;10.60;;
15331;SDS011;7766;51.534;6.722;2023-06-01T03:56:37;17.30;;;10.83;;
15331;SDS011;7766;51.534;6.722;2023-06-01T03:57:38;15.87;;;10.57;;
15331;SDS011;7766;51.534;6.722;2023-06-01T03:58:39;13.00;;;9.67;;
15331;SDS011;7766;51.534;6.722;2023-06-01T03:59:40;14.93;;;10.23;;
15331;SDS011;7766;51.534;6.722;2023-06-01T04:00:41;16.27;;;10.53;;
15331;SDS011;7766;51.534;6.722;2023-06-01T04:01:43;14.10;;;10.00;;
15331;SDS011;7766;51.534;6.722;2023-06-01T04:02:49;13.67;;;9.97;;
15331;SDS011;7766;51.534;6.722;2023-06-01T04:03:55;14.37;;;10.03;;
15331;SDS011;7766;51.534;6.722;2023-06-01T04:04:56;17.77;;;10.27;;
15331;SDS011;7766;51.534;6.722;2023-06-01T04:05:57;14.80;;;9.93;;
15331;SDS011;7766;51.534;6.722;2023-06-01T04:06:59;13.23;;;9.23;;
15331;SDS011;7766;51.534;6.722;2023-06-01T04:08:02;17.13;;;10.43;;
15331;SDS011;7766;51.534;6.722;2023-06-01T04:09:03;15.10;;;9.60;;
15331;SDS011;7766;51.534;6.722;2023-06-01T04:10:09;14.00;;;9.53;;
15331;SDS011;7766;51.534;6.722;2023-06-01T04:11:12;16.13;;;10.07;;
15331;SDS011;7766;51.534;6.722;2023-06-01T04:12:14;15.77;;;9.83;;
15331;SDS011;7766;51.534;6.722;2023-06-01T04:13:15;18.93;;;10.93;;
15331;SDS011;7766;51.534;6.722;2023-06-01T04:14:16;16.27;;;10.30;;
15331;SDS011;7766;51.534;6.722;2023-06-01T04:15:18;13.67;;;8.97;;
15331;SDS011;7766;51.534;6.722;2023-06-01T04:16:20;12.67;;;9.30;;
15331;SDS011;7766;51.534;6.722;2023-06-01T04:17:21;11.77;;;9.23;;
15331;SDS011;7766;51.534;6.722;2023-06-01T04:18:22;16.03;;;10.17;;
15331;SDS011;7766;51.534;6.722;2023-06-01T04:19:23;12.13;;;10.00;;
15331;SDS011;7766;51.534;6.722;2023-06-01T04:20:24;15.47;;;10.10;;
15331;SDS011;7766;51.534;6.722;2023-06-01T04:21:26;11.67;;;9.23;;
15331;SDS011;7766;51.534;6.722;2023-06-01T04:22:27;13.40;;;9.33;;
15331;SDS011;7766;51.534;6.722;2023-06-01T04:23:28;13.63;;;9.77;;
15331;SDS011;7766;51.534;6.722;2023-06-01T04:24:30;14.67;;;9.47;;
15331;SDS011;7766;51.534;6.722;2023-06-01T04:25:31;12.10;;;9.53;;
15331;SDS011;7766;51.534;6.722;2023-06-01T04:26:33;14.80;;;9.63;;
15331;SDS011;7766;51.534;6.722;2023-06-01T04:27:36;15.87;;;9.33;;
15331;SDS011;7766;51.534;6.722;2023-06-01T04:28:37;14.27;;;9.27;;
15331;SDS011;7766;51.534;6.722;2023-06-01T04:29:43;11.87;;;9.10;;
15331;SDS011;7766;51.534;6.722;2023-06-01T04:30:45;13.03;;;9.97;;
15331;SDS011;7766;51.534;6.722;2023-06-01T04:31:47;12.93;;;9.23;;
15331;SDS011;7766;51.534;6.722;2023-06-01T04:32:48;13.83;;;9.33;;
15331;SDS011;7766;51.534;6.722;2023-06-01T04:33:49;12.80;;;9.67;;
15331;SDS011;7766;51.534;6.722;2023-06-01T04:34:56;15.10;;;10.23;;
15331;SDS011;7766;51.534;6.722;2023-06-01T04:35:56;14.57;;;9.40;;
15331;SDS011;7766;51.534;6.722;2023-06-01T04:36:57;15.80;;;8.80;;
15331;SDS011;7766;51.534;6.722;2023-06-01T04:37:59;11.47;;;8.60;;
15331;SDS011;7766;51.534;6.722;2023-06-01T04:39:01;11.40;;;9.23;;
15331;SDS011;7766;51.534;6.722;2023-06-01T04:40:05;13.80;;;9.43;;
15331;SDS011;7766;51.534;6.722;2023-06-01T04:41:09;14.67;;;9.03;;
15331;SDS011;7766;51.534;6.722;2023-06-01T04:42:10;14.57;;;8.97;;
15331;SDS011;7766;51.534;6.722;2023-06-01T04:43:13;14.70;;;10.10;;
15331;SDS011;7766;51.534;6.722;2023-06-01T04:44:18;15.40;;;10.27;;
15331;SDS011;7766;51.534;6.722;2023-06-01T04:45:21;12.97;;;9.17;;
15331;SDS011;7766;51.534;6.722;2023-06-01T04:46:25;14.63;;;9.67;;
15331;SDS011;7766;51.534;6.722;2023-06-01T04:47:27;14.07;;;8.83;;
15331;SDS011;7766;51.534;6.722;2023-06-01T04:48:28;13.50;;;9.50;;
15331;SDS011;7766;51.534;6.722;2023-06-01T04:49:31;14.83;;;9.77;;
15331;SDS011;7766;51.534;6.722;2023-06-01T04:50:34;13.10;;;9.90;;
15331;SDS011;7766;51.534;6.722;2023-06-01T04:51:37;14.73;;;9.30;;
15331;SDS011;7766;51.534;6.722;2023-06-01T04:52:41;13.97;;;9.20;;
15331;SDS011;7766;51.534;6.722;2023-06-01T04:53:42;15.27;;;10.33;;
15331;SDS011;7766;51.534;6.722;2023-06-01T04:54:43;14.57;;;10.10;;
15331;SDS011;7766;51.534;6.722;2023-06-01T04:55:44;16.90;;;11.27;;
15331;SDS011;7766;51.534;6.722;2023-06-01T04:56:46;14.20;;;9.77;;
15331;SDS011;7766;51.534;6.722;2023-06-01T04:57:47;14.73;;;9.60;;
15331;SDS011;7766;51.534;6.722;2023-06-01T04:58:47;15.53;;;9.90;;
15331;SDS011;7766;51.534;6.722;2023-06-01T04:59:48;14.80;;;9.40;;
15331;SDS011;7766;51.534;6.722;2023-06-01T05:00:50;12.23;;;8.97;;
15331;SDS011;7766;51.534;6.722;2023-06-01T05:01:51;13.43;;;10.00;;
15331;SDS011;7766;51.534;6.722;2023-06-01T05:02:52;12.90;;;9.40;;
15331;SDS011;7766;51.534;6.722;2023-06-01T05:03:53;11.57;;;9.60;;
15331;SDS011;7766;51.534;6.722;2023-06-01T05:04:55;13.93;;;9.50;;
15331;SDS011;7766;51.534;6.722;2023-06-01T05:05:56;16.80;;;9.77;;
15331;SDS011;7766;51.534;6.722;2023-06-01T05:06:58;16.73;;;10.40;;
15331;SDS011;7766;51.534;6.722;2023-06-01T05:07:59;13.90;;;10.27;;
15331;SDS011;7766;51.534;6.722;2023-06-01T05:09:00;13.70;;;10.00;;
15331;SDS011;7766;51.534;6.722;2023-06-01T05:10:01;14.13;;;9.77;;
15331;SDS011;7766;51.534;6.722;2023-06-01T05:11:06;15.30;;;9.33;;
15331;SDS011;7766;51.534;6.722;2023-06-01T05:12:08;18.33;;;9.93;;
15331;SDS011;7766;51.534;6.722;2023-06-01T05:13:09;14.03;;;9.00;;
15331;SDS011;7766;51.534;6.722;2023-06-01T05:14:10;14.43;;;8.70;;
15331;SDS011;7766;51.534;6.722;2023-06-01T05:15:11;13.33;;;9.70;;
15331;SDS011;7766;51.534;6.722;2023-06-01T05:16:13;13.37;;;9.13;;
15331;SDS011;7766;51.534;6.722;2023-06-01T05:17:14;13.20;;;9.53;;
15331;SDS011;7766;51.534;6.722;2023-06-01T05:18:15;12.10;;;8.30;;
15331;SDS011;7766;51.534;6.722;2023-06-01T05:19:16;14.10;;;9.40;;
15331;SDS011;7766;51.534;6.722;2023-06-01T05:20:16;16.27;;;9.27;;
15331;SDS011;7766;51.534;6.722;2023-06-01T05:21:17;14.80;;;9.20;;
15331;SDS011;7766;51.534;6.722;2023-06-01T05:22:19;14.03;;;8.87;;
15331;SDS011;7766;51.534;6.722;2023-06-01T05:23:20;12.30;;;8.97;;
15331;SDS011;7766;51.534;6.722;2023-06-01T05:24:21;12.83;;;8.57;;
15331;SDS011;7766;51.534;6.722;2023-06-01T05:25:22;16.57;;;9.00;;
15331;SDS011;7766;51.534;6.722;2023-06-01T05:26:23;12.63;;;9.00;;
15331;SDS011;7766;51.534;6.722;2023-06-01T05:27:25;15.03;;;8.70;;
15331;SDS011;7766;51.534;6.722;2023-06-01T05:28:26;12.07;;;9.27;;
15331;SDS011;7766;51.534;6.722;2023-06-01T05:29:28;13.77;;;8.97;;
15331;SDS011;7766;51.534;6.722;2023-06-01T05:30:28;12.37;;;9.33;;
15331;SDS011;7766;51.534;6.722;2023-06-01T05:31:29;14.70;;;9.33;;
15331;SDS011;7766;51.534;6.722;2023-06-01T05:32:30;13.27;;;9.20;;
15331;SDS011;7766;51.534;6.722;2023-06-01T05:33:32;15.30;;;9.97;;
15331;SDS011;7766;51.534;6.722;2023-06-01T05:34:33;12.10;;;9.73;;
15331;SDS011;7766;51.534;6.722;2023-06-01T05:35:34;14.17;;;9.00;;
15331;SDS011;7766;51.534;6.722;2023-06-01T05:36:35;11.93;;;8.53;;
15331;SDS011;7766;51.534;6.722;2023-06-01T05:37:36;11.57;;;9.20;;
15331;SDS011;7766;51.534;6.722;2023-06-01T05:38:37;12.63;;;9.17;;
15331;SDS011;7766;51.534;6.722;2023-06-01T05:39:38;13.80;;;8.97;;
15331;SDS011;7766;51.534;6.722;2023-06-01T05:40:39;13.83;;;9.40;;
15331;SDS011;7766;51.534;6.722;2023-06-01T05:41:40;12.63;;;8.23;;
15331;SDS011;7766;51.534;6.722;2023-06-01T05:42:41;13.43;;;8.87;;
15331;SDS011;7766;51.534;6.722;2023-06-01T05:43:42;15.57;;;9.90;;
15331;SDS011;7766;51.534;6.722;2023-06-01T05:44:43;13.23;;;9.27;;
15331;SDS011;7766;51.534;6.722;2023-06-01T05:45:44;12.77;;;8.80;;
15331;SDS011;7766;51.534;6.722;2023-06-01T05:46:45;12.77;;;9.70;;
15331;SDS011;7766;51.534;6.722;2023-06-01T05:47:46;16.53;;;9.07;;
15331;SDS011;7766;51.534;6.722;2023-06-01T05:48:47;13.87;;;9.37;;
15331;SDS011;7766;51.534;6.722;2023-06-01T05:49:47;14.27;;;9.53;;
15331;SDS011;7766;51.534;6.722;2023-06-01T05:50:48;15.27;;;9.97;;
15331;SDS011;7766;51.534;6.722;2023-06-01T05:51:49;12.83;;;8.57;;
15331;SDS011;7766;51.534;6.722;2023-06-01T05:52:51;13.77;;;9.47;;
15331;SDS011;7766;51.534;6.722;2023-06-01T05:53:52;14.63;;;9.53;;
15331;SDS011;7766;51.534;6.722;2023-06-01T05:54:53;14.47;;;9.07;;
15331;SDS011;7766;51.534;6.722;2023-06-01T05:55:54;13.07;;;9.20;;
15331;SDS011;7766;51.534;6.722;2023-06-01T05:56:55;14.77;;;8.70;;
15331;SDS011;7766;51.534;6.722;2023-06-01T05:57:56;16.87;;;9.27;;
15331;SDS011;7766;51.534;6.722;2023-06-01T05:58:58;12.83;;;9.57;;
15331;SDS011;7766;51.534;6.722;2023-06-01T05:59:59;15.47;;;9.27;;
15331;SDS011;7766;51.534;6.722;2023-06-01T06:01:00;14.07;;;9.17;;
15331;SDS011;7766;51.534;6.722;2023-06-01T06:02:01;15.43;;;9.03;;
15331;SDS011;7766;51.534;6.722;2023-06-01T06:03:02;12.23;;;8.97;;
15331;SDS011;7766;51.534;6.722;2023-06-01T06:04:04;10.23;;;8.33;;
15331;SDS011;7766;51.534;6.722;2023-06-01T06:05:06;10.87;;;8.17;;
15331;SDS011;7766;51.534;6.722;2023-06-01T06:06:07;12.13;;;8.37;;
15331;SDS011;7766;51.534;6.722;2023-06-01T06:07:08;13.43;;;8.73;;
15331;SDS011;7766;51.534;6.722;2023-06-01T06:08:09;14.80;;;9.73;;
15331;SDS011;7766;51.534;6.722;2023-06-01T06:09:10;12.23;;;9.40;;
15331;SDS011;7766;51.534;6.722;2023-06-01T06:10:13;14.53;;;8.60;;
15331;SDS011;7766;51.534;6.722;2023-06-01T06:11:14;11.13;;;8.30;;
15331;SDS011;7766;51.534;6.722;2023-06-01T06:12:14;12.37;;;8.80;;
15331;SDS011;7766;51.534;6.722;2023-06-01T06:13:16;12.83;;;8.60;;
15331;SDS011;7766;51.534;6.722;2023-06-01T06:14:17;21.47;;;8.93;;
15331;SDS011;7766;51.534;6.722;2023-06-01T06:15:18;11.97;;;8.63;;
15331;SDS011;7766;51.534;6.722;2023-06-01T06:16:19;11.47;;;8.37;;
15331;SDS011;7766;51.534;6.722;2023-06-01T06:17:20;14.93;;;8.03;;
15331;SDS011;7766;51.534;6.722;2023-06-01T06:18:22;15.97;;;9.50;;
15331;SDS011;7766;51.534;6.722;2023-06-01T06:19:23;11.63;;;7.67;;
15331;SDS011;7766;51.534;6.722;2023-06-01T06:20:24;12.40;;;8.43;;
15331;SDS011;7766;51.534;6.722;2023-06-01T06:21:25;12.53;;;7.23;;
15331;SDS011;7766;51.534;6.722;2023-06-01T06:22:26;12.83;;;7.70;;
15331;SDS011;7766;51.534;6.722;2023-06-01T06:23:26;10.97;;;7.77;;